createdAt,value
2023-04-11T00:00:58.816Z,7.47
2023-04-11T00:03:29.018Z,7.03
2023-04-11T00:05:57.605Z,7.00
2023-04-11T00:08:25.766Z,7.10
2023-04-11T00:10:53.705Z,6.67
2023-04-11T00:13:23.760Z,6.93
2023-04-11T00:15:55.155Z,6.70
2023-04-11T00:18:26.817Z,6.50
2023-04-11T00:20:56.280Z,6.60
2023-04-11T00:23:24.244Z,6.27
2023-04-11T00:25:52.204Z,6.47
2023-04-11T00:28:20.151Z,6.20
2023-04-11T00:30:48.299Z,5.80
2023-04-11T00:33:16.649Z,5.33
2023-04-11T00:35:45.073Z,5.43
2023-04-11T00:38:14.478Z,5.10
2023-04-11T00:40:42.469Z,5.37
2023-04-11T00:43:10.828Z,5.10
2023-04-11T00:45:39.108Z,5.10
2023-04-11T00:48:07.942Z,4.53
2023-04-11T00:50:41.068Z,4.43
2023-04-11T00:53:10.230Z,4.30
2023-04-11T00:55:40.037Z,4.20
2023-04-11T00:58:09.093Z,4.60
2023-04-11T01:00:38.684Z,4.20
2023-04-11T01:03:06.936Z,4.27
2023-04-11T01:05:36.909Z,3.80
2023-04-11T01:08:05.641Z,3.50
2023-04-11T01:10:33.846Z,3.40
2023-04-11T01:13:03.667Z,3.10
2023-04-11T01:15:31.922Z,2.90
2023-04-11T01:18:02.700Z,3.20
2023-04-11T01:20:31.763Z,3.10
2023-04-11T01:23:01.917Z,2.87
2023-04-11T01:25:31.271Z,2.87
2023-04-11T01:27:59.370Z,2.60
2023-04-11T01:30:30.774Z,2.90
2023-04-11T01:32:58.913Z,2.97
2023-04-11T01:35:26.946Z,2.73
2023-04-11T01:37:56.624Z,3.00
2023-04-11T01:40:24.665Z,3.20
2023-04-11T01:42:54.945Z,2.80
2023-04-11T01:45:23.621Z,2.93
2023-04-11T01:47:52.500Z,3.00
2023-04-11T01:50:20.862Z,2.90
2023-04-11T01:52:49.340Z,2.90
2023-04-11T01:55:18.179Z,3.03
2023-04-11T01:57:46.161Z,2.80
2023-04-11T02:00:16.716Z,3.07
2023-04-11T02:02:45.121Z,3.20
2023-04-11T02:05:13.439Z,3.17
2023-04-11T02:07:42.427Z,3.07
2023-04-11T02:10:10.861Z,3.40
2023-04-11T02:12:38.936Z,3.10
2023-04-11T02:15:11.942Z,3.00
2023-04-11T02:17:45.522Z,3.60
2023-04-11T02:20:14.576Z,3.20
2023-04-11T02:22:42.855Z,3.03
2023-04-11T02:25:11.141Z,3.00
2023-04-11T02:27:39.105Z,3.20
2023-04-11T02:30:08.716Z,3.03
2023-04-11T02:32:38.189Z,2.90
2023-04-11T02:35:08.185Z,3.00
2023-04-11T02:37:36.472Z,3.00
2023-04-11T02:40:06.448Z,2.67
2023-04-11T02:42:34.618Z,3.00
2023-04-11T02:45:03.280Z,2.80
2023-04-11T02:47:31.371Z,2.90
2023-04-11T02:49:59.350Z,2.90
2023-04-11T02:52:28.637Z,2.73
2023-04-11T02:54:57.144Z,2.90
2023-04-11T02:57:25.166Z,2.67
2023-04-11T02:59:53.132Z,2.80
2023-04-11T03:02:21.188Z,2.43
2023-04-11T03:04:49.179Z,2.27
2023-04-11T03:07:17.572Z,2.10
2023-04-11T03:09:46.942Z,2.10
2023-04-11T03:12:14.936Z,1.90
2023-04-11T03:14:42.898Z,1.60
2023-04-11T03:17:13.886Z,1.90
2023-04-11T03:19:42.272Z,1.87
2023-04-11T03:22:12.660Z,2.00
2023-04-11T03:24:40.644Z,1.87
2023-04-11T03:27:10.523Z,2.00
2023-04-11T03:29:38.484Z,1.90
2023-04-11T03:32:07.333Z,2.17
2023-04-11T03:34:35.707Z,2.23
2023-04-11T03:37:03.735Z,2.30
2023-04-11T03:39:31.806Z,2.07
2023-04-11T03:41:59.868Z,2.07
2023-04-11T03:44:29.568Z,2.10
2023-04-11T03:46:57.691Z,2.03
2023-04-11T03:49:25.973Z,2.10
2023-04-11T03:51:53.965Z,2.30
2023-04-11T03:54:21.969Z,1.90
2023-04-11T03:56:50.183Z,2.00
2023-04-11T03:59:18.173Z,1.77
2023-04-11T04:01:47.651Z,1.70
2023-04-11T04:04:15.830Z,1.80
2023-04-11T04:06:45.972Z,1.70
2023-04-11T04:09:15.614Z,1.83
2023-04-11T04:11:43.627Z,1.80
2023-04-11T04:14:11.615Z,1.90
2023-04-11T04:16:39.616Z,2.00
2023-04-11T04:19:09.457Z,2.00
2023-04-11T04:21:39.091Z,1.80
2023-04-11T04:24:07.462Z,2.10
2023-04-11T04:26:37.984Z,1.90
2023-04-11T04:29:06.232Z,1.90
2023-04-11T04:31:34.712Z,1.90
2023-04-11T04:34:09.023Z,1.97
2023-04-11T04:36:46.444Z,2.20
2023-04-11T04:39:19.395Z,2.00
2023-04-11T04:41:48.868Z,2.10
2023-04-11T04:44:17.554Z,1.90
2023-04-11T04:46:45.734Z,2.20
2023-04-11T04:49:13.676Z,2.07
2023-04-11T04:51:42.999Z,2.13
2023-04-11T04:54:10.991Z,2.10
2023-04-11T04:56:39.787Z,2.10
2023-04-11T04:59:08.022Z,2.37
2023-04-11T05:01:40.047Z,2.30
2023-04-11T05:04:08.412Z,2.20
2023-04-11T05:06:36.523Z,1.90
2023-04-11T05:09:07.092Z,1.97
2023-04-11T05:11:35.068Z,1.70
2023-04-11T05:14:03.146Z,1.77
2023-04-11T05:16:31.260Z,1.67
2023-04-11T05:18:59.263Z,1.70
2023-04-11T05:21:28.309Z,1.47
2023-04-11T05:23:56.561Z,1.50
2023-04-11T05:26:26.250Z,1.70
2023-04-11T05:28:54.308Z,1.60
2023-04-11T05:31:22.365Z,1.60
2023-04-11T05:33:50.819Z,1.63
2023-04-11T05:36:19.216Z,1.70
2023-04-11T05:38:47.239Z,1.60
2023-04-11T05:41:15.516Z,1.63
2023-04-11T05:43:46.046Z,1.60
2023-04-11T05:46:14.620Z,1.90
2023-04-11T05:48:42.655Z,1.70
2023-04-11T05:51:10.601Z,1.57
2023-04-11T05:53:38.588Z,2.60
2023-04-11T05:56:07.206Z,2.30
2023-04-11T05:58:37.205Z,2.97
2023-04-11T06:01:07.392Z,2.23
2023-04-11T06:03:35.789Z,1.87
2023-04-11T06:06:04.005Z,2.00
2023-04-11T06:08:32.228Z,1.93
2023-04-11T06:11:00.876Z,2.20
2023-04-11T06:13:28.888Z,1.93
2023-04-11T06:15:57.072Z,2.07
2023-04-11T06:18:26.435Z,2.27
2023-04-11T06:20:55.038Z,2.30
2023-04-11T06:23:24.166Z,2.33
2023-04-11T06:25:52.934Z,2.20
2023-04-11T06:28:21.006Z,2.40
2023-04-11T06:30:49.282Z,2.10
2023-04-11T06:33:17.393Z,2.03
2023-04-11T06:35:47.282Z,2.20
2023-04-11T06:38:15.498Z,2.23
2023-04-11T06:40:43.455Z,2.00
2023-04-11T06:43:11.776Z,2.30
2023-04-11T06:45:41.636Z,2.20
2023-04-11T06:48:10.202Z,2.07
2023-04-11T06:50:39.641Z,2.40
2023-04-11T06:53:09.148Z,2.10
2023-04-11T06:55:37.208Z,2.30
2023-04-11T06:58:05.277Z,2.70
2023-04-11T07:00:33.497Z,2.70
2023-04-11T07:03:01.994Z,2.50
2023-04-11T07:05:30.241Z,2.90
2023-04-11T07:07:58.312Z,2.90
2023-04-11T07:10:27.873Z,3.10
2023-04-11T07:12:57.009Z,3.50
2023-04-11T07:15:24.997Z,3.13
2023-04-11T07:17:53.683Z,3.13
2023-04-11T07:20:21.858Z,3.30
2023-04-11T07:22:49.922Z,3.40
2023-04-11T07:25:18.797Z,3.20
2023-04-11T07:27:49.321Z,3.70
2023-04-11T07:30:17.860Z,3.90
2023-04-11T07:32:46.352Z,3.73
2023-04-11T07:35:14.388Z,3.73
2023-04-11T07:37:43.422Z,3.70
2023-04-11T07:40:12.110Z,3.80
2023-04-11T07:42:40.421Z,3.17
2023-04-11T07:45:10.589Z,3.57
2023-04-11T07:47:39.037Z,3.90
2023-04-11T07:50:08.415Z,3.00
2023-04-11T07:52:36.565Z,2.83
2023-04-11T07:55:05.274Z,3.67
2023-04-11T07:57:33.554Z,2.87
2023-04-11T08:00:01.835Z,3.07
2023-04-11T08:02:33.603Z,2.97
2023-04-11T08:05:02.048Z,3.00
2023-04-11T08:07:30.318Z,2.80
2023-04-11T08:09:58.721Z,2.47
2023-04-11T08:12:26.775Z,1.90
2023-04-11T08:14:55.372Z,1.60
2023-04-11T08:17:29.219Z,1.40
2023-04-11T08:20:02.058Z,1.37
2023-04-11T08:22:30.572Z,1.10
2023-04-11T08:24:59.402Z,1.20
2023-04-11T08:27:28.153Z,1.13
2023-04-11T08:29:56.340Z,1.43
2023-04-11T08:32:24.527Z,1.50
2023-04-11T08:34:52.903Z,1.20
2023-04-11T08:37:22.655Z,1.10
2023-04-11T08:39:50.728Z,0.83
2023-04-11T08:42:25.800Z,0.77
2023-04-11T08:44:55.345Z,0.90
2023-04-11T08:47:24.143Z,0.90
2023-04-11T08:49:54.737Z,0.90
2023-04-11T08:52:25.456Z,1.27
2023-04-11T08:54:55.199Z,1.00
2023-04-11T08:57:28.046Z,1.17
2023-04-11T08:59:57.215Z,0.80
2023-04-11T09:02:25.589Z,0.93
2023-04-11T09:04:54.658Z,1.07
2023-04-11T09:07:24.126Z,1.13
2023-04-11T09:09:52.452Z,0.90
2023-04-11T09:12:29.699Z,0.80
2023-04-11T09:14:57.867Z,1.00
2023-04-11T09:17:26.245Z,1.33
2023-04-11T09:19:55.030Z,0.77
2023-04-11T09:22:37.253Z,0.90
2023-04-11T09:25:05.912Z,1.03
2023-04-11T09:27:34.281Z,0.90
2023-04-11T09:30:04.126Z,0.87
2023-04-11T09:32:33.831Z,1.23
2023-04-11T09:35:12.840Z,1.03
2023-04-11T09:37:46.716Z,1.40
2023-04-11T09:40:20.779Z,1.50
2023-04-11T09:42:49.883Z,1.60
2023-04-11T09:45:22.197Z,1.00
2023-04-11T09:47:52.796Z,1.00
2023-04-11T09:50:22.017Z,0.90
2023-04-11T09:52:52.844Z,1.03
2023-04-11T09:55:22.212Z,0.80
2023-04-11T09:57:51.853Z,0.80
2023-04-11T10:00:22.628Z,0.90
2023-04-11T10:02:52.907Z,0.97
2023-04-11T10:05:26.088Z,1.30
2023-04-11T10:08:00.784Z,1.17
2023-04-11T10:10:29.774Z,0.97
2023-04-11T10:12:57.779Z,1.37
2023-04-11T10:15:25.988Z,1.10
2023-04-11T10:18:10.974Z,1.30
2023-04-11T10:20:47.745Z,1.27
2023-04-11T10:23:17.701Z,1.30
2023-04-11T10:25:55.235Z,1.40
2023-04-11T10:28:35.172Z,1.20
2023-04-11T10:31:05.317Z,1.10
2023-04-11T10:33:36.009Z,1.13
2023-04-11T10:36:06.415Z,1.13
2023-04-11T10:38:51.663Z,1.30
2023-04-11T10:41:32.149Z,1.30
2023-04-11T10:44:15.027Z,1.10
2023-04-11T10:46:49.077Z,1.50
2023-04-11T10:49:37.550Z,1.37
2023-04-11T10:52:23.186Z,1.50
2023-04-11T10:54:54.546Z,1.40
2023-04-11T10:57:23.750Z,1.27
2023-04-11T11:00:01.657Z,1.17
2023-04-11T11:02:40.280Z,1.40
2023-04-11T11:05:22.380Z,1.30
2023-04-11T11:07:52.119Z,1.30
2023-04-11T11:10:40.812Z,1.20
2023-04-11T11:13:10.052Z,1.30
2023-04-11T11:15:39.067Z,1.20
2023-04-11T11:18:09.728Z,1.20
2023-04-11T11:20:38.562Z,1.20
2023-04-11T11:23:08.469Z,0.90
2023-04-11T11:25:37.169Z,1.47
2023-04-11T11:28:08.438Z,1.40
2023-04-11T11:30:37.256Z,1.40
2023-04-11T11:33:18.903Z,1.30
2023-04-11T11:35:53.342Z,1.40
2023-04-11T11:38:22.711Z,1.70
2023-04-11T11:40:51.557Z,1.77
2023-04-11T11:43:21.151Z,1.20
2023-04-11T11:46:08.828Z,1.53
2023-04-11T11:48:37.792Z,1.30
2023-04-11T11:51:06.438Z,1.27
2023-04-11T11:53:34.667Z,1.50
2023-04-11T11:56:14.248Z,1.40
2023-04-11T11:58:46.755Z,1.30
2023-04-11T12:01:18.507Z,1.27
2023-04-11T12:03:51.456Z,1.20
2023-04-11T12:06:20.537Z,1.40
2023-04-11T12:08:51.960Z,1.90
2023-04-11T12:11:20.115Z,1.53
2023-04-11T12:13:53.289Z,1.30
2023-04-11T12:16:24.205Z,1.20
2023-04-11T12:18:52.529Z,1.27
2023-04-11T12:21:21.564Z,1.17
2023-04-11T12:23:49.556Z,1.40
2023-04-11T12:26:20.895Z,1.17
2023-04-11T12:28:51.273Z,1.30
2023-04-11T12:31:21.274Z,1.30
2023-04-11T12:33:49.308Z,1.53
2023-04-11T12:36:17.431Z,1.30
2023-04-11T12:38:45.548Z,1.57
2023-04-11T12:41:31.653Z,1.10
2023-04-11T12:44:03.693Z,1.20
2023-04-11T12:46:33.548Z,1.37
2023-04-11T12:49:01.709Z,1.60
2023-04-11T12:51:30.423Z,1.63
2023-04-11T12:53:58.444Z,1.30
2023-04-11T12:56:26.972Z,1.20
2023-04-11T12:58:55.302Z,1.40
2023-04-11T13:01:24.813Z,1.80
2023-04-11T13:03:53.382Z,1.40
2023-04-11T13:06:23.126Z,1.43
2023-04-11T13:08:51.306Z,1.53
2023-04-11T13:11:19.286Z,1.40
2023-04-11T13:13:48.341Z,1.40
2023-04-11T13:16:17.446Z,1.60
2023-04-11T13:18:46.920Z,1.70
2023-04-11T13:21:15.122Z,1.67
2023-04-11T13:23:43.529Z,1.67
2023-04-11T13:26:11.527Z,1.60
2023-04-11T13:28:40.326Z,1.90
2023-04-11T13:31:10.358Z,1.90
2023-04-11T13:33:40.529Z,1.60
2023-04-11T13:36:11.757Z,2.10
2023-04-11T13:38:40.039Z,2.00
2023-04-11T13:41:08.745Z,1.70
2023-04-11T13:43:36.886Z,1.57
2023-04-11T13:46:05.378Z,1.60
2023-04-11T13:48:33.669Z,1.63
2023-04-11T13:51:01.970Z,1.40
2023-04-11T13:53:32.014Z,1.70
2023-04-11T13:56:00.379Z,1.90
2023-04-11T13:58:28.568Z,1.70
2023-04-11T14:00:56.782Z,2.10
2023-04-11T14:03:25.570Z,1.70
2023-04-11T14:05:55.017Z,1.67
2023-04-11T14:08:23.055Z,1.70
2023-04-11T14:10:52.853Z,1.90
2023-04-11T14:13:21.292Z,1.70
2023-04-11T14:15:54.833Z,1.67
2023-04-11T14:18:33.654Z,1.90
2023-04-11T14:21:01.884Z,1.60
2023-04-11T14:23:30.421Z,1.67
2023-04-11T14:25:59.932Z,1.60
2023-04-11T14:28:28.034Z,1.50
2023-04-11T14:30:57.861Z,1.60
2023-04-11T14:33:26.484Z,1.63
2023-04-11T14:35:54.567Z,1.60
2023-04-11T14:38:22.615Z,1.60
2023-04-11T14:40:50.660Z,1.60
2023-04-11T14:43:20.411Z,1.43
2023-04-11T14:45:48.700Z,1.50
2023-04-11T14:48:17.073Z,1.40
2023-04-11T14:50:45.058Z,1.40
2023-04-11T14:53:13.097Z,1.43
2023-04-11T14:55:42.842Z,1.30
2023-04-11T14:58:12.238Z,1.40
2023-04-11T15:00:41.805Z,1.63
2023-04-11T15:03:10.691Z,1.30
2023-04-11T15:05:39.184Z,1.30
2023-04-11T15:08:08.866Z,1.20
2023-04-11T15:10:36.890Z,1.60
2023-04-11T15:13:05.078Z,2.33
2023-04-11T15:15:33.184Z,1.60
2023-04-11T15:18:25.383Z,1.80
2023-04-11T15:20:53.673Z,1.60
2023-04-11T15:23:22.517Z,1.63
2023-04-11T15:25:54.725Z,1.50
2023-04-11T15:28:23.353Z,1.40
2023-04-11T15:30:53.643Z,1.20
2023-04-11T15:33:24.031Z,1.23
2023-04-11T15:35:53.658Z,1.90
2023-04-11T15:38:22.000Z,1.50
2023-04-11T15:40:50.877Z,1.20
2023-04-11T15:43:19.400Z,1.73
2023-04-11T15:45:47.870Z,1.40
2023-04-11T15:48:16.028Z,1.50
2023-04-11T15:50:47.013Z,1.60
2023-04-11T15:53:15.074Z,1.90
2023-04-11T15:55:44.955Z,1.83
2023-04-11T15:58:13.092Z,1.77
2023-04-11T16:00:43.852Z,1.80
2023-04-11T16:03:12.267Z,1.70
2023-04-11T16:05:43.230Z,1.90
2023-04-11T16:08:13.225Z,1.60
2023-04-11T16:10:41.351Z,1.83
2023-04-11T16:13:09.342Z,1.60
2023-04-11T16:15:37.311Z,1.57
2023-04-11T16:18:05.726Z,1.50
2023-04-11T16:20:37.336Z,1.73
2023-04-11T16:23:05.649Z,1.90
2023-04-11T16:25:35.014Z,1.67
2023-04-11T16:28:03.523Z,1.73
2023-04-11T16:30:31.594Z,2.10
2023-04-11T16:33:00.096Z,1.73
2023-04-11T16:35:28.167Z,2.03
2023-04-11T16:37:56.159Z,1.70
2023-04-11T16:40:24.136Z,1.73
2023-04-11T16:42:53.554Z,1.70
2023-04-11T16:45:21.780Z,1.60
2023-04-11T16:47:49.872Z,1.70
2023-04-11T16:50:18.438Z,1.60
2023-04-11T16:52:47.411Z,1.60
2023-04-11T16:55:15.524Z,1.73
2023-04-11T16:57:44.062Z,2.10
2023-04-11T17:00:19.895Z,1.70
2023-04-11T17:02:48.183Z,2.03
2023-04-11T17:05:18.843Z,1.80
2023-04-11T17:07:47.187Z,1.77
2023-04-11T17:10:15.530Z,1.60
2023-04-11T17:12:43.520Z,1.30
2023-04-11T17:15:13.556Z,1.63
2023-04-11T17:17:41.736Z,1.50
2023-04-11T17:20:12.399Z,1.63
2023-04-11T17:22:43.102Z,1.33
2023-04-11T17:25:11.898Z,1.53
2023-04-11T17:27:40.051Z,20.13
2023-04-11T17:30:09.523Z,2.03
2023-04-11T17:32:42.410Z,5.10
2023-04-11T17:35:11.902Z,2.30
2023-04-11T17:37:40.145Z,1.97
2023-04-11T17:40:14.155Z,1.87
2023-04-11T17:42:42.906Z,1.87
2023-04-11T17:45:17.601Z,1.50
2023-04-11T17:47:48.009Z,1.70
2023-04-11T17:50:16.935Z,1.77
2023-04-11T17:52:46.609Z,1.73
2023-04-11T17:55:16.949Z,1.63
2023-04-11T17:57:47.208Z,2.00
2023-04-11T18:00:19.186Z,4.10
2023-04-11T18:02:50.066Z,8.53
2023-04-11T18:05:23.749Z,5.83
2023-04-11T18:07:56.626Z,2.70
2023-04-11T18:10:25.910Z,2.10
2023-04-11T18:12:55.031Z,2.20
2023-04-11T18:15:23.974Z,2.13
2023-04-11T18:17:53.772Z,2.17
2023-04-11T18:20:21.984Z,2.10
2023-04-11T18:22:54.733Z,2.10
2023-04-11T18:25:23.595Z,1.80
2023-04-11T18:27:51.685Z,2.00
2023-04-11T18:30:19.798Z,2.43
2023-04-11T18:32:50.289Z,2.43
2023-04-11T18:35:20.427Z,2.20
2023-04-11T18:37:49.303Z,2.17
2023-04-11T18:40:18.075Z,2.40
2023-04-11T18:42:48.421Z,2.53
2023-04-11T18:45:18.096Z,2.50
2023-04-11T18:47:46.747Z,2.40
2023-04-11T18:50:15.999Z,2.50
2023-04-11T18:52:46.486Z,2.60
2023-04-11T18:55:16.121Z,2.50
2023-04-11T18:57:46.056Z,2.30
2023-04-11T19:00:19.027Z,2.60
2023-04-11T19:02:50.678Z,2.40
2023-04-11T19:05:19.488Z,2.20
2023-04-11T19:07:49.137Z,2.40
2023-04-11T19:10:17.274Z,2.47
2023-04-11T19:12:46.020Z,2.67
2023-04-11T19:15:14.444Z,2.60
2023-04-11T19:17:42.731Z,2.50
2023-04-11T19:20:13.532Z,2.20
2023-04-11T19:22:41.917Z,2.40
2023-04-11T19:25:13.676Z,2.37
2023-04-11T19:27:42.669Z,2.70
2023-04-11T19:30:13.756Z,12.23
2023-04-11T19:32:43.691Z,3.10
2023-04-11T19:35:12.810Z,2.47
2023-04-11T19:37:41.913Z,2.67
2023-04-11T19:40:13.442Z,2.50
2023-04-11T19:42:42.057Z,2.93
2023-04-11T19:45:11.191Z,2.60
2023-04-11T19:47:40.462Z,2.27
2023-04-11T19:50:12.200Z,2.90
2023-04-11T19:52:40.417Z,2.27
2023-04-11T19:55:10.348Z,2.30
2023-04-11T19:57:40.305Z,2.50
2023-04-11T20:00:12.534Z,2.87
2023-04-11T20:02:44.529Z,2.70
2023-04-11T20:05:12.884Z,2.80
2023-04-11T20:07:42.532Z,2.60
2023-04-11T20:10:11.563Z,2.50
2023-04-11T20:12:41.473Z,3.27
2023-04-11T20:15:10.732Z,3.30
2023-04-11T20:17:39.022Z,3.10
2023-04-11T20:20:08.861Z,2.70
2023-04-11T20:22:38.543Z,2.40
2023-04-11T20:25:12.014Z,3.23
2023-04-11T20:27:42.195Z,3.73
2023-04-11T20:30:12.241Z,2.93
2023-04-11T20:32:41.475Z,3.03
2023-04-11T20:35:12.101Z,3.33
2023-04-11T20:37:41.321Z,4.13
2023-04-11T20:40:11.084Z,18.60
2023-04-11T20:42:42.379Z,12.00
2023-04-11T20:45:14.275Z,13.03
2023-04-11T20:47:44.898Z,8.37
2023-04-11T20:50:15.791Z,4.40
2023-04-11T20:52:45.617Z,9.30
2023-04-11T20:55:18.195Z,3.17
2023-04-11T20:57:46.291Z,2.93
2023-04-11T21:00:18.423Z,3.10
2023-04-11T21:02:47.847Z,2.80
2023-04-11T21:05:18.067Z,3.00
2023-04-11T21:07:46.532Z,3.07
2023-04-11T21:10:15.682Z,3.13
2023-04-11T21:12:51.030Z,2.97
2023-04-11T21:15:21.252Z,3.00
2023-04-11T21:17:50.563Z,3.07
2023-04-11T21:20:19.535Z,2.50
2023-04-11T21:22:48.699Z,3.30
2023-04-11T21:25:17.770Z,2.97
2023-04-11T21:27:46.207Z,2.90
2023-04-11T21:30:16.158Z,2.70
2023-04-11T21:32:45.860Z,2.67
2023-04-11T21:35:14.021Z,2.90
2023-04-11T21:37:42.135Z,2.63
2023-04-11T21:40:10.830Z,2.50
2023-04-11T21:42:42.526Z,2.50
2023-04-11T21:45:10.732Z,2.50
2023-04-11T21:47:38.845Z,2.67
2023-04-11T21:50:09.942Z,3.00
2023-04-11T21:52:37.955Z,3.27
2023-04-11T21:55:08.658Z,3.07
2023-04-11T21:57:38.151Z,2.77
2023-04-11T22:00:08.258Z,3.00
2023-04-11T22:02:36.893Z,3.17
2023-04-11T22:05:07.240Z,2.90
2023-04-11T22:07:47.552Z,3.30
2023-04-11T22:10:22.110Z,3.27
2023-04-11T22:12:50.204Z,2.97
2023-04-11T22:15:18.954Z,3.00
2023-04-11T22:17:51.288Z,2.83
2023-04-11T22:20:19.989Z,2.97
2023-04-11T22:22:49.417Z,2.90
2023-04-11T22:25:18.196Z,3.20
2023-04-11T22:27:46.503Z,2.60
2023-04-11T22:30:16.973Z,3.43
2023-04-11T22:32:44.971Z,2.97
2023-04-11T22:35:13.568Z,3.30
2023-04-11T22:37:41.572Z,3.50
2023-04-11T22:40:13.627Z,2.80
2023-04-11T22:42:43.026Z,3.13
2023-04-11T22:45:12.157Z,3.27
2023-04-11T22:47:40.279Z,3.10
2023-04-11T22:50:09.444Z,3.20
2023-04-11T22:52:37.803Z,3.27
2023-04-11T22:55:07.786Z,3.13
2023-04-11T22:57:37.190Z,3.17
2023-04-11T23:00:07.156Z,3.60
2023-04-11T23:02:37.268Z,3.40
2023-04-11T23:05:06.140Z,3.37
2023-04-11T23:07:34.650Z,3.23
2023-04-11T23:10:05.619Z,3.37
2023-04-11T23:12:33.616Z,3.57
2023-04-11T23:15:04.088Z,3.87
2023-04-11T23:17:33.110Z,3.40
2023-04-11T23:20:13.922Z,3.67
2023-04-11T23:22:43.942Z,3.67
2023-04-11T23:25:12.711Z,3.53
2023-04-11T23:27:40.751Z,3.10
2023-04-11T23:30:11.838Z,3.20
2023-04-11T23:32:40.823Z,3.17
2023-04-11T23:35:10.699Z,3.00
2023-04-11T23:37:38.842Z,2.97
2023-04-11T23:40:10.821Z,2.97
2023-04-11T23:42:39.216Z,2.80
2023-04-11T23:45:08.753Z,2.93
2023-04-11T23:47:38.241Z,2.57
2023-04-11T23:50:07.841Z,2.80
2023-04-11T23:52:36.244Z,2.70
2023-04-11T23:55:04.924Z,2.50
2023-04-11T23:57:33.523Z,2.60
